createdAt,value
2022-11-03T00:01:00.829Z,17.23
2022-11-03T00:03:27.959Z,18.00
2022-11-03T00:06:06.637Z,13.57
2022-11-03T00:08:40.603Z,12.00
2022-11-03T00:11:08.960Z,12.50
2022-11-03T00:13:36.081Z,15.83
2022-11-03T00:16:02.903Z,14.97
2022-11-03T00:18:29.733Z,15.27
2022-11-03T00:21:00.529Z,9.43
2022-11-03T00:23:31.532Z,13.50
2022-11-03T00:26:14.966Z,17.07
2022-11-03T00:28:43.055Z,14.63
2022-11-03T00:31:11.131Z,16.47
2022-11-03T00:33:38.579Z,13.17
2022-11-03T00:36:06.025Z,11.00
2022-11-03T00:38:32.978Z,12.17
2022-11-03T00:41:00.771Z,12.67
2022-11-03T00:43:28.462Z,16.60
2022-11-03T00:45:55.431Z,9.67
2022-11-03T00:48:35.155Z,9.97
2022-11-03T00:51:12.783Z,11.43
2022-11-03T00:53:40.719Z,10.03
2022-11-03T00:56:08.392Z,12.60
2022-11-03T00:58:35.230Z,9.43
2022-11-03T01:01:07.672Z,12.20
2022-11-03T01:03:36.804Z,11.47
2022-11-03T01:06:24.477Z,10.17
2022-11-03T01:08:51.414Z,15.57
2022-11-03T01:11:37.895Z,12.50
2022-11-03T01:14:05.068Z,11.03
2022-11-03T01:16:32.339Z,9.83
2022-11-03T01:18:59.483Z,11.77
2022-11-03T01:21:26.435Z,9.23
2022-11-03T01:23:53.316Z,12.40
2022-11-03T01:26:20.136Z,9.20
2022-11-03T01:28:47.431Z,8.47
2022-11-03T01:31:15.646Z,12.37
2022-11-03T01:33:43.029Z,8.57
2022-11-03T01:36:09.840Z,10.67
2022-11-03T01:38:37.138Z,9.83
2022-11-03T01:41:05.577Z,8.93
2022-11-03T01:43:32.648Z,9.07
2022-11-03T01:46:07.017Z,9.67
2022-11-03T01:48:34.571Z,7.60
2022-11-03T01:51:03.168Z,8.33
2022-11-03T01:53:30.463Z,7.33
2022-11-03T01:55:57.762Z,12.10
2022-11-03T01:58:28.470Z,9.40
2022-11-03T02:00:59.464Z,10.63
2022-11-03T02:03:27.556Z,12.17
2022-11-03T02:05:54.619Z,11.30
2022-11-03T02:08:24.830Z,8.13
2022-11-03T02:10:51.914Z,13.63
2022-11-03T02:13:20.216Z,10.17
2022-11-03T02:15:49.235Z,9.80
2022-11-03T02:18:18.190Z,16.97
2022-11-03T02:20:46.254Z,13.67
2022-11-03T02:23:15.790Z,17.67
2022-11-03T02:25:50.930Z,23.77
2022-11-03T02:28:25.817Z,12.43
2022-11-03T02:31:01.721Z,13.50
2022-11-03T02:33:38.558Z,11.73
2022-11-03T02:36:05.407Z,9.47
2022-11-03T02:38:34.294Z,11.70
2022-11-03T02:41:03.384Z,15.33
2022-11-03T02:43:30.473Z,16.23
2022-11-03T02:45:57.664Z,20.97
2022-11-03T02:48:24.649Z,12.87
2022-11-03T02:50:51.412Z,16.20
2022-11-03T02:53:19.833Z,19.77
2022-11-03T02:55:52.473Z,18.07
2022-11-03T02:58:37.918Z,9.00
2022-11-03T03:01:17.203Z,10.93
2022-11-03T03:03:52.467Z,11.43
2022-11-03T03:06:30.842Z,9.83
2022-11-03T03:09:00.732Z,11.60
2022-11-03T03:11:39.789Z,12.90
2022-11-03T03:14:10.543Z,11.33
2022-11-03T03:16:55.764Z,11.40
2022-11-03T03:19:31.055Z,14.37
2022-11-03T03:22:00.252Z,16.37
2022-11-03T03:24:48.670Z,15.90
2022-11-03T03:27:16.831Z,16.47
2022-11-03T03:29:46.773Z,18.50
2022-11-03T03:32:14.580Z,17.00
2022-11-03T03:34:43.626Z,17.17
2022-11-03T03:37:11.210Z,16.53
2022-11-03T03:39:39.543Z,13.67
2022-11-03T03:42:07.485Z,9.97
2022-11-03T03:44:34.558Z,12.57
2022-11-03T03:47:04.057Z,9.47
2022-11-03T03:49:30.845Z,9.40
2022-11-03T03:51:57.766Z,16.33
2022-11-03T03:54:24.558Z,13.07
2022-11-03T03:56:58.529Z,16.57
2022-11-03T03:59:25.475Z,15.33
2022-11-03T04:01:52.280Z,18.80
2022-11-03T04:04:19.218Z,17.77
2022-11-03T04:06:46.213Z,13.23
2022-11-03T04:09:13.210Z,17.53
2022-11-03T04:11:58.481Z,16.77
2022-11-03T04:14:44.140Z,17.13
2022-11-03T04:17:36.365Z,14.47
2022-11-03T04:20:21.818Z,15.77
2022-11-03T04:22:48.809Z,13.60
2022-11-03T04:25:16.078Z,14.03
2022-11-03T04:27:42.997Z,14.17
2022-11-03T04:30:09.768Z,16.23
2022-11-03T04:32:36.998Z,18.40
2022-11-03T04:35:22.095Z,14.97
2022-11-03T04:37:57.489Z,20.80
2022-11-03T04:40:24.362Z,14.13
2022-11-03T04:42:51.297Z,21.50
2022-11-03T04:45:21.153Z,29.90
2022-11-03T04:47:47.948Z,16.13
2022-11-03T04:50:17.078Z,18.80
2022-11-03T04:52:43.831Z,22.27
2022-11-03T04:55:13.990Z,19.43
2022-11-03T04:57:40.982Z,16.63
2022-11-03T05:00:08.088Z,17.90
2022-11-03T05:02:34.952Z,16.53
2022-11-03T05:05:05.346Z,18.03
2022-11-03T05:07:34.285Z,15.60
2022-11-03T05:10:01.359Z,24.07
2022-11-03T05:12:29.727Z,24.03
2022-11-03T05:14:58.720Z,24.83
2022-11-03T05:17:27.502Z,19.13
2022-11-03T05:20:00.416Z,21.10
2022-11-03T05:22:29.567Z,21.10
2022-11-03T05:24:58.741Z,18.50
2022-11-03T05:27:25.747Z,25.10
2022-11-03T05:29:56.375Z,18.10
2022-11-03T05:32:28.910Z,20.63
2022-11-03T05:34:56.278Z,18.73
2022-11-03T05:37:26.780Z,21.30
2022-11-03T05:39:55.568Z,18.67
2022-11-03T05:42:22.319Z,23.43
2022-11-03T05:44:50.592Z,18.47
2022-11-03T05:47:26.153Z,20.70
2022-11-03T05:49:54.600Z,27.27
2022-11-03T05:52:23.063Z,52.60
2022-11-03T05:54:50.393Z,30.00
2022-11-03T05:57:18.157Z,37.13
2022-11-03T05:59:49.856Z,32.23
2022-11-03T06:02:37.770Z,31.93
2022-11-03T06:05:36.543Z,38.07
2022-11-03T06:08:10.714Z,41.73
2022-11-03T06:10:41.140Z,22.50
2022-11-03T06:13:12.695Z,19.20
2022-11-03T06:15:41.150Z,13.10
2022-11-03T06:18:13.886Z,21.70
2022-11-03T06:20:40.857Z,19.80
2022-11-03T06:23:10.534Z,19.13
2022-11-03T06:25:37.696Z,18.17
2022-11-03T06:28:11.426Z,13.47
2022-11-03T06:33:28.665Z,20.53
2022-11-03T06:36:03.529Z,20.27
2022-11-03T06:38:31.848Z,25.00
2022-11-03T06:40:59.045Z,24.83
2022-11-03T06:43:29.043Z,24.37
2022-11-03T06:45:57.351Z,18.50
2022-11-03T06:48:25.260Z,22.77
2022-11-03T06:50:52.389Z,16.93
2022-11-03T06:53:29.797Z,20.47
2022-11-03T06:55:57.058Z,24.00
2022-11-03T06:58:27.837Z,17.13
2022-11-03T07:01:02.639Z,19.17
2022-11-03T07:03:35.328Z,18.27
2022-11-03T07:06:13.311Z,19.53
2022-11-03T07:08:40.129Z,36.37
2022-11-03T07:11:13.123Z,30.17
2022-11-03T07:13:40.090Z,21.83
2022-11-03T07:16:27.087Z,23.57
2022-11-03T07:18:54.302Z,17.27
2022-11-03T07:21:29.120Z,20.27
2022-11-03T07:23:56.995Z,21.17
2022-11-03T07:26:23.772Z,18.37
2022-11-03T07:28:51.133Z,25.67
2022-11-03T07:31:22.636Z,25.23
2022-11-03T07:33:49.686Z,19.80
2022-11-03T07:36:20.881Z,24.03
2022-11-03T07:38:49.282Z,21.37
2022-11-03T07:41:18.563Z,18.40
2022-11-03T07:43:50.489Z,20.03
2022-11-03T07:46:20.237Z,18.07
2022-11-03T07:48:48.095Z,17.50
2022-11-03T07:51:14.806Z,16.07
2022-11-03T07:53:45.845Z,20.93
2022-11-03T07:56:18.279Z,17.70
2022-11-03T07:58:45.389Z,17.40
2022-11-03T08:01:27.853Z,20.57
2022-11-03T08:03:56.625Z,24.33
2022-11-03T08:06:23.386Z,17.10
2022-11-03T08:08:50.290Z,18.97
2022-11-03T08:11:17.296Z,21.80
2022-11-03T08:13:44.059Z,23.53
2022-11-03T08:16:11.116Z,18.13
2022-11-03T08:18:37.899Z,18.77
2022-11-03T08:21:04.872Z,19.17
2022-11-03T08:23:32.003Z,21.83
2022-11-03T08:25:59.036Z,16.97
2022-11-03T08:28:26.280Z,20.87
2022-11-03T08:30:53.568Z,21.10
2022-11-03T08:33:20.559Z,20.50
2022-11-03T08:35:47.380Z,18.90
2022-11-03T08:38:14.251Z,25.43
2022-11-03T08:40:41.086Z,22.30
2022-11-03T08:43:08.075Z,19.10
2022-11-03T08:45:34.801Z,21.20
2022-11-03T08:48:01.626Z,16.23
2022-11-03T08:50:28.582Z,24.17
2022-11-03T08:52:55.465Z,18.47
2022-11-03T08:55:22.208Z,17.70
2022-11-03T08:57:49.334Z,23.67
2022-11-03T09:00:18.794Z,20.13
2022-11-03T09:02:46.071Z,19.50
2022-11-03T09:05:13.216Z,17.90
2022-11-03T09:10:32.413Z,25.57
2022-11-03T09:13:02.326Z,20.07
2022-11-03T09:15:29.537Z,19.73
2022-11-03T09:17:56.594Z,14.13
2022-11-03T09:20:23.446Z,15.03
2022-11-03T09:22:50.990Z,17.93
2022-11-03T09:25:17.954Z,18.97
2022-11-03T09:27:44.808Z,22.83
2022-11-03T09:30:13.601Z,19.47
2022-11-03T09:32:41.227Z,25.50
2022-11-03T09:35:09.901Z,25.17
2022-11-03T09:37:37.419Z,18.23
2022-11-03T09:40:04.506Z,15.40
2022-11-03T09:42:31.921Z,19.13
2022-11-03T09:44:58.804Z,17.80
2022-11-03T09:47:52.192Z,24.23
2022-11-03T09:50:20.606Z,23.80
2022-11-03T09:52:51.537Z,18.67
2022-11-03T09:55:22.153Z,18.17
2022-11-03T09:57:49.159Z,14.00
2022-11-03T10:00:18.647Z,12.57
2022-11-03T10:02:46.502Z,18.20
2022-11-03T10:05:23.025Z,13.60
2022-11-03T10:07:50.330Z,11.63
2022-11-03T10:10:19.057Z,13.33
2022-11-03T10:12:46.623Z,13.00
2022-11-03T10:15:16.547Z,6.20
2022-11-03T10:17:43.670Z,9.57
2022-11-03T10:20:11.654Z,3.27
2022-11-03T10:22:41.148Z,4.20
2022-11-03T10:25:26.718Z,8.13
2022-11-03T10:28:14.351Z,7.27
2022-11-03T10:31:11.326Z,4.03
2022-11-03T10:33:40.941Z,5.40
2022-11-03T10:36:22.365Z,6.73
2022-11-03T10:38:49.451Z,4.63
2022-11-03T10:41:17.356Z,5.57
2022-11-03T10:43:45.415Z,5.83
2022-11-03T10:46:36.667Z,6.70
2022-11-03T10:49:04.447Z,4.77
2022-11-03T10:51:31.270Z,7.63
2022-11-03T10:53:58.731Z,8.27
2022-11-03T10:56:26.091Z,6.30
2022-11-03T10:58:53.003Z,8.13
2022-11-03T11:01:19.878Z,8.57
2022-11-03T11:03:46.909Z,7.23
2022-11-03T11:06:24.789Z,22.07
2022-11-03T11:08:59.636Z,11.60
2022-11-03T11:11:27.225Z,12.87
2022-11-03T11:14:12.462Z,10.63
2022-11-03T11:16:50.190Z,6.77
2022-11-03T11:19:17.125Z,9.60
2022-11-03T11:21:43.826Z,9.23
2022-11-03T11:24:11.425Z,7.13
2022-11-03T11:26:39.151Z,7.80
2022-11-03T11:29:26.112Z,7.97
2022-11-03T11:31:53.054Z,6.20
2022-11-03T11:34:23.669Z,10.83
2022-11-03T11:36:56.554Z,6.63
2022-11-03T11:39:23.416Z,7.80
2022-11-03T11:42:08.902Z,8.80
2022-11-03T11:44:50.899Z,5.70
2022-11-03T11:47:36.247Z,6.93
2022-11-03T11:50:03.073Z,8.33
2022-11-03T11:52:30.438Z,4.47
2022-11-03T11:54:57.241Z,7.60
2022-11-03T11:57:24.359Z,9.73
2022-11-03T11:59:51.716Z,7.17
2022-11-03T12:02:29.653Z,8.20
2022-11-03T12:05:01.423Z,7.47
2022-11-03T12:07:35.132Z,5.53
2022-11-03T12:10:20.595Z,8.63
2022-11-03T12:12:47.391Z,5.97
2022-11-03T12:15:32.886Z,9.73
2022-11-03T12:17:59.705Z,7.97
2022-11-03T12:20:36.710Z,11.57
2022-11-03T12:23:03.622Z,7.40
2022-11-03T12:25:35.889Z,8.10
2022-11-03T12:28:02.696Z,8.60
2022-11-03T12:30:29.413Z,4.03
2022-11-03T12:32:57.810Z,10.03
2022-11-03T12:35:24.529Z,8.67
2022-11-03T12:37:51.416Z,5.60
2022-11-03T12:40:18.532Z,8.50
2022-11-03T12:42:45.905Z,6.77
2022-11-03T12:45:13.934Z,5.70
2022-11-03T12:47:40.820Z,9.00
2022-11-03T12:50:07.804Z,5.93
2022-11-03T12:52:34.623Z,9.77
2022-11-03T12:55:01.506Z,7.70
2022-11-03T12:57:28.292Z,6.23
2022-11-03T12:59:55.151Z,4.83
2022-11-03T13:02:22.093Z,6.83
2022-11-03T13:04:49.401Z,6.53
2022-11-03T13:07:19.223Z,5.70
2022-11-03T13:09:51.125Z,6.53
2022-11-03T13:12:33.192Z,9.00
2022-11-03T13:15:01.208Z,6.53
2022-11-03T13:17:32.251Z,7.67
2022-11-03T13:22:35.242Z,5.33
2022-11-03T13:25:01.981Z,5.10
2022-11-03T13:27:28.778Z,6.20
2022-11-03T13:29:56.742Z,4.83
2022-11-03T13:32:23.693Z,9.60
2022-11-03T13:34:50.462Z,7.53
2022-11-03T13:37:17.512Z,8.67
2022-11-03T13:39:44.245Z,7.87
2022-11-03T13:42:11.104Z,7.23
2022-11-03T13:44:38.093Z,11.60
2022-11-03T13:47:06.801Z,7.17
2022-11-03T13:52:21.777Z,8.67
2022-11-03T14:00:22.765Z,7.87
2022-11-03T14:05:38.356Z,10.50
2022-11-03T14:08:05.787Z,10.80
2022-11-03T14:10:32.744Z,11.80
2022-11-03T14:12:59.571Z,13.20
2022-11-03T14:15:26.407Z,23.90
2022-11-03T14:17:53.188Z,19.17
2022-11-03T14:20:20.135Z,11.73
2022-11-03T14:22:46.957Z,26.07
2022-11-03T14:25:13.829Z,15.03
2022-11-03T14:27:40.614Z,13.27
2022-11-03T14:30:07.810Z,36.40
2022-11-03T14:32:34.562Z,31.47
2022-11-03T14:35:01.642Z,11.80
2022-11-03T14:37:28.883Z,13.43
2022-11-03T14:39:55.852Z,10.97
2022-11-03T14:42:22.672Z,10.17
2022-11-03T14:44:50.180Z,13.70
2022-11-03T14:47:18.139Z,13.00
2022-11-03T14:49:46.098Z,24.17
2022-11-03T14:52:13.112Z,13.93
2022-11-03T14:54:40.159Z,11.97
2022-11-03T14:57:07.025Z,16.07
2022-11-03T14:59:34.147Z,15.03
2022-11-03T15:02:01.553Z,11.63
2022-11-03T15:04:29.093Z,10.83
2022-11-03T15:06:55.930Z,25.93
2022-11-03T15:09:22.665Z,28.97
2022-11-03T15:11:49.675Z,14.77
2022-11-03T15:14:16.493Z,25.93
2022-11-03T15:16:44.913Z,26.37
2022-11-03T15:19:11.760Z,28.93
2022-11-03T15:21:38.826Z,21.27
2022-11-03T15:26:52.579Z,13.37
2022-11-03T15:29:19.340Z,21.43
2022-11-03T15:31:48.225Z,12.37
2022-11-03T15:34:15.876Z,33.83
2022-11-03T15:36:42.727Z,25.93
2022-11-03T15:39:09.745Z,17.30
2022-11-03T15:41:36.778Z,15.67
2022-11-03T15:44:04.127Z,24.80
2022-11-03T15:46:31.110Z,26.00
2022-11-03T15:48:58.059Z,37.03
2022-11-03T15:51:25.054Z,17.63
2022-11-03T15:53:56.956Z,49.27
2022-11-03T15:56:25.785Z,23.30
2022-11-03T15:58:52.648Z,23.03
2022-11-03T16:01:19.549Z,27.77
2022-11-03T16:03:46.516Z,18.93
2022-11-03T16:06:13.711Z,10.70
2022-11-03T16:08:40.751Z,12.93
2022-11-03T16:11:07.527Z,14.03
2022-11-03T16:13:34.332Z,15.40
2022-11-03T16:16:01.226Z,10.23
2022-11-03T16:18:27.956Z,15.17
2022-11-03T16:20:54.906Z,14.80
2022-11-03T16:23:21.641Z,25.87
2022-11-03T16:25:48.459Z,22.83
2022-11-03T16:28:15.314Z,16.60
2022-11-03T16:30:42.190Z,21.50
2022-11-03T16:33:09.239Z,27.67
2022-11-03T16:35:36.017Z,40.40
2022-11-03T16:38:03.061Z,75.77
2022-11-03T16:40:30.071Z,40.00
2022-11-03T16:42:56.919Z,44.07
2022-11-03T16:45:24.098Z,26.83
2022-11-03T16:47:51.032Z,26.10
2022-11-03T16:50:18.083Z,25.00
2022-11-03T16:52:45.855Z,35.47
2022-11-03T16:55:13.046Z,40.77
2022-11-03T16:57:39.854Z,34.10
2022-11-03T17:00:08.451Z,38.70
2022-11-03T17:02:35.370Z,43.87
2022-11-03T17:05:02.401Z,34.43
2022-11-03T17:07:29.142Z,39.77
2022-11-03T17:09:56.007Z,25.80
2022-11-03T17:12:22.839Z,35.00
2022-11-03T17:14:52.546Z,25.00
2022-11-03T17:17:22.438Z,25.43
2022-11-03T17:19:49.339Z,24.97
2022-11-03T17:22:17.366Z,29.30
2022-11-03T17:24:44.568Z,26.27
2022-11-03T17:27:14.737Z,23.43
2022-11-03T17:29:48.464Z,23.97
2022-11-03T17:32:16.381Z,17.67
2022-11-03T17:34:43.160Z,19.07
2022-11-03T17:37:10.015Z,23.93
2022-11-03T17:39:38.083Z,49.67
2022-11-03T17:42:16.079Z,59.50
2022-11-03T17:44:43.799Z,43.80
2022-11-03T17:47:10.561Z,42.50
2022-11-03T17:49:37.444Z,35.73
2022-11-03T17:52:04.305Z,29.20
2022-11-03T17:54:31.643Z,21.93
2022-11-03T17:57:00.097Z,29.70
2022-11-03T17:59:27.642Z,19.73
2022-11-03T18:01:54.720Z,26.30
2022-11-03T18:04:21.614Z,25.33
2022-11-03T18:06:48.583Z,20.47
2022-11-03T18:09:15.435Z,22.83
2022-11-03T18:12:01.900Z,21.40
2022-11-03T18:14:29.326Z,24.27
2022-11-03T18:16:56.456Z,17.10
2022-11-03T18:19:23.396Z,18.80
2022-11-03T18:21:50.219Z,26.97
2022-11-03T18:24:18.781Z,20.37
2022-11-03T18:26:45.638Z,31.53
2022-11-03T18:29:12.479Z,28.33
2022-11-03T18:31:41.631Z,27.80
2022-11-03T18:34:26.632Z,30.70
2022-11-03T18:36:53.586Z,23.40
2022-11-03T18:39:25.267Z,22.27
2022-11-03T18:41:52.337Z,22.43
2022-11-03T18:44:20.408Z,19.57
2022-11-03T18:46:48.182Z,22.00
2022-11-03T18:49:15.972Z,27.00
2022-11-03T18:51:46.872Z,19.67
2022-11-03T18:54:14.963Z,22.13
2022-11-03T18:56:41.891Z,22.83
2022-11-03T18:59:16.136Z,17.50
2022-11-03T19:01:43.140Z,19.70
2022-11-03T19:04:15.084Z,25.23
2022-11-03T19:06:43.056Z,21.67
2022-11-03T19:09:12.300Z,21.00
2022-11-03T19:11:39.235Z,22.53
2022-11-03T19:14:07.230Z,23.03
2022-11-03T19:16:34.275Z,24.90
2022-11-03T19:19:01.006Z,22.03
2022-11-03T19:21:27.903Z,21.27
2022-11-03T19:23:58.269Z,20.13
2022-11-03T19:26:30.287Z,29.40
2022-11-03T19:29:00.627Z,18.03
2022-11-03T19:31:30.199Z,23.03
2022-11-03T19:33:57.920Z,20.53
2022-11-03T19:36:25.171Z,23.00
2022-11-03T19:38:51.996Z,19.23
2022-11-03T19:41:37.397Z,21.50
2022-11-03T19:44:08.939Z,23.50
2022-11-03T19:46:36.009Z,23.20
2022-11-03T19:49:03.770Z,21.17
2022-11-03T19:51:30.722Z,25.17
2022-11-03T19:53:57.770Z,22.00
2022-11-03T19:56:24.901Z,21.43
2022-11-03T19:58:52.199Z,26.77
2022-11-03T20:01:19.170Z,20.57
2022-11-03T20:03:46.051Z,20.53
2022-11-03T20:06:18.126Z,21.13
2022-11-03T20:08:47.515Z,24.23
2022-11-03T20:11:14.353Z,21.43
2022-11-03T20:13:42.941Z,24.60
2022-11-03T20:16:13.878Z,26.13
2022-11-03T20:18:42.001Z,23.90
2022-11-03T20:21:14.357Z,24.03
2022-11-03T20:23:41.413Z,22.60
2022-11-03T20:26:13.433Z,22.47
2022-11-03T20:28:40.333Z,21.27
2022-11-03T20:31:07.882Z,25.37
2022-11-03T20:33:35.759Z,20.90
2022-11-03T20:36:02.940Z,24.70
2022-11-03T20:38:30.561Z,22.03
2022-11-03T20:41:01.092Z,19.17
2022-11-03T20:43:32.496Z,25.47
2022-11-03T20:45:59.845Z,26.50
2022-11-03T20:48:26.735Z,23.57
2022-11-03T20:50:54.020Z,21.43
2022-11-03T20:53:22.645Z,21.80
2022-11-03T20:55:49.890Z,21.00
2022-11-03T20:58:17.516Z,24.33
2022-11-03T21:00:45.395Z,27.87
2022-11-03T21:03:31.436Z,24.43
2022-11-03T21:06:04.882Z,22.57
2022-11-03T21:08:31.775Z,25.13
2022-11-03T21:11:18.621Z,27.93
2022-11-03T21:13:45.469Z,24.33
2022-11-03T21:16:30.710Z,24.77
2022-11-03T21:19:16.225Z,27.50
2022-11-03T21:21:43.093Z,25.37
2022-11-03T21:24:11.629Z,22.87
2022-11-03T21:26:40.311Z,23.90
2022-11-03T21:29:07.175Z,25.23
2022-11-03T21:31:33.935Z,23.90
2022-11-03T21:34:00.782Z,25.83
2022-11-03T21:36:27.697Z,24.03
2022-11-03T21:38:54.523Z,21.30
2022-11-03T21:41:39.932Z,26.60
2022-11-03T21:44:16.774Z,28.13
2022-11-03T21:46:44.057Z,24.87
2022-11-03T21:49:29.824Z,26.70
2022-11-03T21:51:57.478Z,25.57
2022-11-03T21:54:24.367Z,23.07
2022-11-03T21:56:51.137Z,30.10
2022-11-03T21:59:18.069Z,24.03
2022-11-03T22:01:44.879Z,25.73
2022-11-03T22:04:11.756Z,29.10
2022-11-03T22:06:39.247Z,30.77
2022-11-03T22:09:06.050Z,26.33
2022-11-03T22:11:32.782Z,29.57
2022-11-03T22:14:00.533Z,31.00
2022-11-03T22:16:53.597Z,29.90
2022-11-03T22:19:40.236Z,23.83
2022-11-03T22:22:32.576Z,27.27
2022-11-03T22:25:18.424Z,27.23
2022-11-03T22:27:45.471Z,29.03
2022-11-03T22:30:30.891Z,30.47
2022-11-03T22:32:58.163Z,33.27
2022-11-03T22:35:43.985Z,29.37
2022-11-03T22:38:15.803Z,24.87
2022-11-03T22:41:02.147Z,28.10
2022-11-03T22:43:47.302Z,29.87
2022-11-03T22:46:14.984Z,28.30
2022-11-03T22:48:41.797Z,25.03
2022-11-03T22:51:15.989Z,29.00
2022-11-03T22:54:01.855Z,34.20
2022-11-03T22:56:29.624Z,25.90
2022-11-03T22:58:56.738Z,28.27
2022-11-03T23:01:24.696Z,32.90
2022-11-03T23:03:51.517Z,27.53
2022-11-03T23:06:19.312Z,31.83
2022-11-03T23:08:47.538Z,25.07
2022-11-03T23:11:18.626Z,31.13
2022-11-03T23:13:54.322Z,27.80
2022-11-03T23:16:22.396Z,27.37
2022-11-03T23:19:07.565Z,28.97
2022-11-03T23:21:34.840Z,30.40
2022-11-03T23:24:20.612Z,29.17
2022-11-03T23:26:47.862Z,24.40
2022-11-03T23:29:15.164Z,33.53
2022-11-03T23:31:42.690Z,27.13
2022-11-03T23:34:10.137Z,28.13
2022-11-03T23:36:37.113Z,26.40
2022-11-03T23:39:04.023Z,26.47
2022-11-03T23:41:31.086Z,28.53
2022-11-03T23:43:58.294Z,36.73
2022-11-03T23:46:45.055Z,28.50
2022-11-03T23:49:12.249Z,29.23
2022-11-03T23:51:39.449Z,30.20
2022-11-03T23:54:07.469Z,29.63
2022-11-03T23:56:54.554Z,26.87
2022-11-03T23:59:21.764Z,28.93
